createdAt,value
2022-09-13T00:01:00.796Z,11.70
2022-09-13T00:03:27.725Z,11.60
2022-09-13T00:05:54.477Z,11.50
2022-09-13T00:08:21.409Z,11.40
2022-09-13T00:10:48.334Z,11.40
2022-09-13T00:13:15.481Z,11.40
2022-09-13T00:15:49.339Z,11.40
2022-09-13T00:18:16.299Z,11.40
2022-09-13T00:20:43.193Z,11.20
2022-09-13T00:23:10.858Z,11.20
2022-09-13T00:25:37.798Z,11.20
2022-09-13T00:28:04.834Z,11.10
2022-09-13T00:30:31.643Z,11.10
2022-09-13T00:32:58.377Z,11.10
2022-09-13T00:35:25.230Z,11.00
2022-09-13T00:37:51.979Z,10.90
2022-09-13T00:40:18.841Z,10.90
2022-09-13T00:42:45.643Z,10.80
2022-09-13T00:45:12.331Z,10.80
2022-09-13T00:47:42.050Z,10.80
2022-09-13T00:50:21.895Z,10.80
2022-09-13T00:53:01.283Z,10.80
2022-09-13T00:55:44.065Z,10.80
2022-09-13T00:58:14.054Z,10.80
2022-09-13T01:00:40.936Z,10.80
2022-09-13T01:03:09.349Z,10.80
2022-09-13T01:05:47.751Z,10.80
2022-09-13T01:08:22.488Z,10.80
2022-09-13T01:10:52.479Z,10.80
2022-09-13T01:13:23.546Z,10.70
2022-09-13T01:15:50.305Z,10.70
2022-09-13T01:18:17.350Z,10.70
2022-09-13T01:20:53.000Z,10.70
2022-09-13T01:23:28.590Z,10.70
2022-09-13T01:26:22.785Z,10.70
2022-09-13T01:29:02.768Z,10.70
2022-09-13T01:32:20.453Z,10.70
2022-09-13T01:35:02.753Z,10.60
2022-09-13T01:37:38.460Z,10.50
2022-09-13T01:40:23.568Z,10.40
2022-09-13T01:43:03.047Z,10.40
2022-09-13T01:46:02.786Z,10.30
2022-09-13T01:48:35.592Z,10.20
2022-09-13T01:51:32.572Z,10.20
2022-09-13T01:54:17.843Z,10.20
2022-09-13T01:57:03.980Z,10.10
2022-09-13T01:59:39.688Z,10.10
2022-09-13T02:02:12.343Z,10.00
2022-09-13T02:04:41.926Z,10.00
2022-09-13T02:07:20.062Z,10.10
2022-09-13T02:09:50.608Z,10.10
2022-09-13T02:12:23.234Z,10.10
2022-09-13T02:15:00.771Z,10.10
2022-09-13T02:17:29.980Z,10.00
2022-09-13T02:20:00.271Z,10.00
2022-09-13T02:22:33.098Z,10.00
2022-09-13T02:25:10.705Z,10.00
2022-09-13T02:27:37.362Z,9.90
2022-09-13T02:30:09.196Z,9.90
2022-09-13T02:32:41.931Z,9.90
2022-09-13T02:35:12.802Z,9.80
2022-09-13T02:37:40.308Z,9.80
2022-09-13T02:40:15.116Z,9.80
2022-09-13T02:42:44.216Z,9.80
2022-09-13T02:45:12.073Z,9.80
2022-09-13T02:47:59.184Z,9.70
2022-09-13T02:50:49.693Z,9.70
2022-09-13T02:53:30.450Z,9.60
2022-09-13T02:56:29.076Z,9.50
2022-09-13T02:59:00.679Z,9.50
2022-09-13T03:01:27.450Z,9.50
2022-09-13T03:03:54.359Z,9.60
2022-09-13T03:06:25.135Z,9.50
2022-09-13T03:08:52.960Z,9.50
2022-09-13T03:11:49.817Z,9.50
2022-09-13T03:14:19.317Z,9.40
2022-09-13T03:16:56.548Z,9.40
2022-09-13T03:19:53.913Z,9.40
2022-09-13T03:22:48.529Z,9.30
2022-09-13T03:25:45.469Z,9.30
2022-09-13T03:28:24.733Z,9.30
2022-09-13T03:30:55.689Z,9.30
2022-09-13T03:33:30.454Z,9.30
2022-09-13T03:36:20.370Z,9.30
2022-09-13T03:39:06.708Z,9.30
2022-09-13T03:41:36.937Z,9.30
2022-09-13T03:44:05.138Z,9.30
2022-09-13T03:46:42.416Z,9.30
2022-09-13T03:49:14.319Z,9.40
2022-09-13T03:51:41.252Z,9.30
2022-09-13T03:54:10.815Z,9.30
2022-09-13T03:56:37.664Z,9.30
2022-09-13T03:59:04.413Z,9.30
2022-09-13T04:01:31.230Z,9.30
2022-09-13T04:03:59.069Z,9.30
2022-09-13T04:06:25.756Z,9.30
2022-09-13T04:08:52.471Z,9.40
2022-09-13T04:11:21.313Z,9.30
2022-09-13T04:13:48.245Z,9.30
2022-09-13T04:16:15.379Z,9.20
2022-09-13T04:18:42.133Z,9.20
2022-09-13T04:21:08.956Z,9.20
2022-09-13T04:23:35.667Z,9.20
2022-09-13T04:26:03.693Z,9.10
2022-09-13T04:28:30.976Z,9.10
2022-09-13T04:30:57.794Z,9.10
2022-09-13T04:33:25.128Z,9.00
2022-09-13T04:35:58.510Z,9.00
2022-09-13T04:38:25.279Z,8.90
2022-09-13T04:40:55.450Z,9.00
2022-09-13T04:43:22.610Z,9.00
2022-09-13T04:45:49.548Z,9.10
2022-09-13T04:48:16.523Z,9.00
2022-09-13T04:50:43.446Z,9.00
2022-09-13T04:53:10.185Z,8.90
2022-09-13T04:55:36.923Z,9.00
2022-09-13T04:58:04.188Z,9.00
2022-09-13T05:00:31.681Z,8.90
2022-09-13T05:02:58.527Z,9.00
2022-09-13T05:05:28.912Z,9.00
2022-09-13T05:07:55.727Z,9.00
2022-09-13T05:10:22.471Z,9.10
2022-09-13T05:12:49.199Z,9.10
2022-09-13T05:15:15.909Z,9.20
2022-09-13T05:17:42.630Z,9.20
2022-09-13T05:20:09.933Z,9.20
2022-09-13T05:22:36.641Z,9.30
2022-09-13T05:25:03.797Z,9.30
2022-09-13T05:27:30.544Z,9.40
2022-09-13T05:29:57.414Z,9.40
2022-09-13T05:32:24.169Z,9.50
2022-09-13T05:34:50.933Z,9.50
2022-09-13T05:37:18.702Z,9.50
2022-09-13T05:40:09.691Z,9.60
2022-09-13T05:42:32.318Z,9.60
2022-09-13T05:44:59.079Z,9.70
2022-09-13T05:47:25.751Z,9.70
2022-09-13T05:50:09.224Z,9.70
2022-09-13T05:52:36.451Z,9.80
2022-09-13T05:55:04.703Z,9.90
2022-09-13T05:57:31.410Z,9.90
2022-09-13T05:59:58.091Z,10.00
2022-09-13T06:02:24.998Z,10.20
2022-09-13T06:04:51.975Z,10.30
2022-09-13T06:07:18.790Z,10.40
2022-09-13T06:09:45.501Z,10.50
2022-09-13T06:12:12.189Z,10.60
2022-09-13T06:14:38.882Z,10.80
2022-09-13T06:17:05.613Z,10.90
2022-09-13T06:19:32.269Z,11.00
2022-09-13T06:21:58.962Z,11.20
2022-09-13T06:24:25.661Z,11.30
2022-09-13T06:26:52.482Z,11.50
2022-09-13T06:29:19.200Z,11.60
2022-09-13T06:31:45.943Z,11.80
2022-09-13T06:34:16.257Z,11.90
2022-09-13T06:36:43.287Z,12.10
2022-09-13T06:39:10.041Z,12.20
2022-09-13T06:41:37.540Z,12.30
2022-09-13T06:44:04.499Z,12.40
2022-09-13T06:46:32.838Z,12.50
2022-09-13T06:49:05.980Z,12.60
2022-09-13T06:51:33.171Z,12.60
2022-09-13T06:54:00.139Z,12.80
2022-09-13T06:56:28.300Z,12.90
2022-09-13T06:58:59.407Z,13.00
2022-09-13T07:01:28.102Z,13.10
2022-09-13T07:04:02.653Z,13.20
2022-09-13T07:06:31.101Z,13.30
2022-09-13T07:08:58.589Z,13.40
2022-09-13T07:11:26.770Z,13.50
2022-09-13T07:13:57.511Z,13.60
2022-09-13T07:16:25.707Z,13.70
2022-09-13T07:18:53.620Z,13.70
2022-09-13T07:21:20.792Z,13.80
2022-09-13T07:23:47.556Z,13.80
2022-09-13T07:26:14.300Z,14.00
2022-09-13T07:28:45.248Z,14.10
2022-09-13T07:31:17.269Z,14.20
2022-09-13T07:33:44.291Z,14.30
2022-09-13T07:36:12.076Z,14.40
2022-09-13T07:38:40.437Z,14.40
2022-09-13T07:41:09.074Z,14.50
2022-09-13T07:43:36.169Z,14.60
2022-09-13T07:46:07.592Z,14.60
2022-09-13T07:48:35.887Z,14.70
2022-09-13T07:51:07.295Z,14.80
2022-09-13T07:53:34.801Z,14.90
2022-09-13T07:56:06.508Z,15.00
2022-09-13T07:58:33.830Z,15.00
2022-09-13T08:01:12.530Z,15.10
2022-09-13T08:03:39.325Z,15.20
2022-09-13T08:06:06.452Z,15.30
2022-09-13T08:08:33.420Z,15.40
2022-09-13T08:11:01.110Z,15.50
2022-09-13T08:13:28.876Z,15.60
2022-09-13T08:15:56.126Z,15.70
2022-09-13T08:18:23.020Z,15.80
2022-09-13T08:20:49.686Z,15.90
2022-09-13T08:23:16.837Z,16.00
2022-09-13T08:25:43.607Z,16.10
2022-09-13T08:28:27.491Z,16.20
2022-09-13T08:30:54.692Z,16.20
2022-09-13T08:33:21.453Z,16.30
2022-09-13T08:35:52.612Z,16.40
2022-09-13T08:38:19.638Z,16.50
2022-09-13T08:40:50.186Z,16.70
2022-09-13T08:43:30.064Z,16.70
2022-09-13T08:46:02.804Z,16.90
2022-09-13T08:48:35.039Z,16.90
2022-09-13T08:51:05.970Z,17.00
2022-09-13T08:53:32.785Z,17.10
2022-09-13T08:56:05.836Z,17.20
2022-09-13T08:58:50.789Z,17.30
2022-09-13T09:01:24.184Z,17.30
2022-09-13T09:03:57.055Z,17.50
2022-09-13T09:06:23.824Z,17.60
2022-09-13T09:08:54.327Z,17.70
2022-09-13T09:11:31.972Z,17.70
2022-09-13T09:14:06.452Z,18.00
2022-09-13T09:16:49.540Z,18.00
2022-09-13T09:19:22.388Z,18.00
2022-09-13T09:21:50.027Z,18.10
2022-09-13T09:24:19.964Z,18.10
2022-09-13T09:26:46.714Z,18.30
2022-09-13T09:29:16.124Z,18.40
2022-09-13T09:32:04.066Z,18.50
2022-09-13T09:34:42.745Z,18.50
2022-09-13T09:37:22.319Z,18.60
2022-09-13T09:39:49.417Z,18.60
2022-09-13T09:42:18.514Z,18.70
2022-09-13T09:45:01.541Z,18.80
2022-09-13T09:47:45.685Z,18.90
2022-09-13T09:50:15.102Z,19.00
2022-09-13T09:53:02.987Z,19.10
2022-09-13T09:55:41.730Z,19.10
2022-09-13T09:58:08.777Z,19.20
2022-09-13T10:00:36.754Z,19.30
2022-09-13T10:03:08.107Z,19.40
2022-09-13T10:05:35.226Z,19.50
2022-09-13T10:08:04.001Z,19.50
2022-09-13T10:10:43.653Z,19.60
2022-09-13T10:13:16.149Z,19.60
2022-09-13T10:16:23.428Z,19.70
2022-09-13T10:18:50.153Z,19.80
2022-09-13T10:21:19.889Z,20.00
2022-09-13T10:23:47.461Z,20.10
2022-09-13T10:26:21.287Z,20.20
2022-09-13T10:28:57.239Z,20.30
2022-09-13T10:31:28.835Z,20.30
2022-09-13T10:34:00.564Z,20.40
2022-09-13T10:36:51.248Z,20.50
2022-09-13T10:39:21.510Z,20.60
2022-09-13T10:41:59.311Z,20.70
2022-09-13T10:44:53.552Z,20.80
2022-09-13T10:47:22.446Z,20.90
2022-09-13T10:49:52.968Z,21.00
2022-09-13T10:52:27.417Z,21.20
2022-09-13T10:54:55.418Z,21.30
2022-09-13T10:57:31.071Z,21.30
2022-09-13T10:59:57.980Z,21.40
2022-09-13T11:03:18.332Z,21.60
2022-09-13T11:06:02.919Z,21.70
2022-09-13T11:08:38.436Z,21.80
2022-09-13T11:11:24.199Z,21.90
2022-09-13T11:14:09.081Z,22.00
2022-09-13T11:16:44.180Z,22.10
2022-09-13T11:19:20.435Z,22.20
2022-09-13T11:22:04.800Z,22.30
2022-09-13T11:25:06.851Z,22.40
2022-09-13T11:27:42.193Z,22.40
2022-09-13T11:30:19.643Z,22.60
2022-09-13T11:32:55.860Z,22.70
2022-09-13T11:35:34.746Z,22.80
2022-09-13T11:38:23.731Z,22.90
2022-09-13T11:40:52.254Z,23.00
2022-09-13T11:43:45.484Z,23.00
2022-09-13T11:46:24.783Z,23.10
2022-09-13T11:49:10.544Z,23.10
2022-09-13T11:52:07.833Z,23.20
2022-09-13T11:54:50.118Z,23.30
2022-09-13T11:57:26.060Z,23.40
2022-09-13T11:59:58.900Z,23.60
2022-09-13T12:02:37.762Z,23.70
2022-09-13T12:05:23.026Z,23.80
2022-09-13T12:07:52.663Z,23.90
2022-09-13T12:10:23.309Z,23.90
2022-09-13T12:12:50.727Z,24.00
2022-09-13T12:15:24.647Z,24.10
2022-09-13T12:17:57.978Z,24.20
2022-09-13T12:20:31.577Z,24.30
2022-09-13T12:22:59.975Z,24.30
2022-09-13T12:25:46.694Z,24.40
2022-09-13T12:28:27.466Z,24.50
2022-09-13T12:30:57.344Z,24.50
2022-09-13T12:33:24.078Z,24.50
2022-09-13T12:36:19.882Z,24.60
2022-09-13T12:39:04.476Z,24.70
2022-09-13T12:41:51.611Z,24.80
2022-09-13T12:44:35.759Z,24.80
2022-09-13T12:47:37.538Z,24.80
2022-09-13T12:50:43.024Z,24.80
2022-09-13T12:53:21.669Z,24.90
2022-09-13T12:56:14.780Z,24.90
2022-09-13T12:58:41.559Z,25.00
2022-09-13T13:01:23.682Z,25.00
2022-09-13T13:03:56.703Z,25.00
2022-09-13T13:06:52.343Z,25.00
2022-09-13T13:09:33.985Z,25.10
2022-09-13T13:12:00.806Z,25.10
2022-09-13T13:14:28.493Z,25.20
2022-09-13T13:16:55.320Z,25.20
2022-09-13T13:19:32.622Z,25.20
2022-09-13T13:22:36.991Z,25.30
2022-09-13T13:25:38.944Z,25.30
2022-09-13T13:28:44.336Z,25.40
2022-09-13T13:31:35.626Z,25.40
2022-09-13T13:34:05.978Z,25.40
2022-09-13T13:36:43.752Z,25.50
2022-09-13T13:39:22.866Z,25.50
2022-09-13T13:41:59.148Z,25.50
2022-09-13T13:44:25.861Z,25.50
2022-09-13T13:47:08.326Z,25.40
2022-09-13T13:49:35.348Z,25.50
2022-09-13T13:52:17.752Z,25.50
2022-09-13T13:54:53.558Z,25.50
2022-09-13T13:57:38.725Z,25.40
2022-09-13T14:00:22.271Z,25.40
2022-09-13T14:02:53.470Z,25.50
2022-09-13T14:05:47.027Z,25.50
2022-09-13T14:08:31.842Z,25.40
2022-09-13T14:11:26.227Z,25.40
2022-09-13T14:14:02.757Z,25.50
2022-09-13T14:16:36.735Z,25.40
2022-09-13T14:19:24.377Z,25.40
2022-09-13T14:22:14.618Z,25.40
2022-09-13T14:24:43.297Z,25.40
2022-09-13T14:27:20.866Z,25.30
2022-09-13T14:29:49.182Z,25.20
2022-09-13T14:32:17.870Z,25.10
2022-09-13T14:34:55.695Z,25.10
2022-09-13T14:37:27.210Z,25.00
2022-09-13T14:39:58.758Z,25.00
2022-09-13T14:42:25.561Z,25.00
2022-09-13T14:44:52.325Z,25.00
2022-09-13T14:47:25.060Z,25.00
2022-09-13T14:49:54.806Z,25.00
2022-09-13T14:52:28.775Z,25.00
2022-09-13T14:54:57.547Z,25.00
2022-09-13T14:57:30.726Z,25.00
2022-09-13T15:00:17.767Z,25.00
2022-09-13T15:02:55.273Z,25.00
2022-09-13T15:05:23.984Z,24.90
2022-09-13T15:07:50.754Z,24.90
2022-09-13T15:10:29.941Z,25.00
2022-09-13T15:13:05.712Z,25.10
2022-09-13T15:15:32.380Z,25.10
2022-09-13T15:18:00.679Z,25.10
2022-09-13T15:20:45.044Z,25.10
2022-09-13T15:23:20.389Z,25.20
2022-09-13T15:26:00.145Z,25.10
2022-09-13T15:28:28.522Z,25.10
2022-09-13T15:30:56.374Z,25.20
2022-09-13T15:33:30.900Z,25.20
2022-09-13T15:36:28.040Z,25.20
2022-09-13T15:39:03.372Z,25.20
2022-09-13T15:41:34.765Z,25.20
2022-09-13T15:44:02.158Z,25.10
2022-09-13T15:46:29.586Z,25.10
2022-09-13T15:48:58.528Z,25.00
2022-09-13T15:51:25.534Z,24.80
2022-09-13T15:53:52.403Z,24.70
2022-09-13T15:56:25.385Z,24.70
2022-09-13T15:58:52.105Z,24.60
2022-09-13T16:01:18.866Z,24.60
2022-09-13T16:03:45.662Z,24.50
2022-09-13T16:06:12.525Z,24.50
2022-09-13T16:08:39.490Z,24.40
2022-09-13T16:11:06.469Z,24.30
2022-09-13T16:13:33.286Z,24.30
2022-09-13T16:16:00.170Z,24.20
2022-09-13T16:18:27.008Z,24.20
2022-09-13T16:20:53.897Z,24.20
2022-09-13T16:23:20.571Z,24.10
2022-09-13T16:25:47.838Z,24.00
2022-09-13T16:28:19.814Z,23.90
2022-09-13T16:30:47.290Z,23.90
2022-09-13T16:33:14.130Z,23.80
2022-09-13T16:35:40.869Z,23.80
2022-09-13T16:38:07.583Z,23.70
2022-09-13T16:40:34.287Z,23.70
2022-09-13T16:43:00.993Z,23.60
2022-09-13T16:45:27.697Z,23.50
2022-09-13T16:47:54.441Z,23.40
2022-09-13T16:50:21.185Z,23.30
2022-09-13T16:52:47.935Z,23.30
2022-09-13T16:55:14.759Z,23.30
2022-09-13T16:57:41.909Z,23.20
2022-09-13T17:00:11.660Z,23.10
2022-09-13T17:02:38.886Z,23.10
2022-09-13T17:05:07.699Z,23.10
2022-09-13T17:07:34.631Z,23.00
2022-09-13T17:10:01.789Z,22.90
2022-09-13T17:12:28.510Z,22.90
2022-09-13T17:14:55.799Z,22.80
2022-09-13T17:17:22.533Z,22.80
2022-09-13T17:19:49.351Z,22.70
2022-09-13T17:22:16.486Z,22.70
2022-09-13T17:24:43.933Z,22.60
2022-09-13T17:27:10.824Z,22.50
2022-09-13T17:29:37.545Z,22.40
2022-09-13T17:32:05.835Z,22.40
2022-09-13T17:34:34.599Z,22.30
2022-09-13T17:37:03.551Z,22.30
2022-09-13T17:39:30.888Z,22.20
2022-09-13T17:41:58.048Z,22.20
2022-09-13T17:44:24.862Z,22.20
2022-09-13T17:46:51.760Z,22.10
2022-09-13T17:49:18.678Z,22.10
2022-09-13T17:51:45.427Z,22.10
2022-09-13T17:54:12.328Z,22.00
2022-09-13T17:56:41.237Z,21.90
2022-09-13T17:59:11.739Z,21.80
2022-09-13T18:01:40.099Z,21.80
2022-09-13T18:04:07.849Z,21.80
2022-09-13T18:06:36.169Z,21.70
2022-09-13T18:09:02.904Z,21.60
2022-09-13T18:11:29.901Z,21.60
2022-09-13T18:13:56.997Z,21.50
2022-09-13T18:16:25.407Z,21.40
2022-09-13T18:18:52.567Z,21.40
2022-09-13T18:21:21.057Z,21.40
2022-09-13T18:23:48.954Z,21.40
2022-09-13T18:26:17.325Z,21.30
2022-09-13T18:28:44.119Z,21.30
2022-09-13T18:31:15.854Z,21.20
2022-09-13T18:33:42.829Z,21.10
2022-09-13T18:36:14.386Z,21.00
2022-09-13T18:38:42.459Z,21.00
2022-09-13T18:41:22.803Z,21.00
2022-09-13T18:43:55.183Z,20.90
2022-09-13T18:46:24.559Z,20.90
2022-09-13T18:48:55.394Z,20.90
2022-09-13T18:51:27.959Z,20.80
2022-09-13T18:53:55.717Z,20.70
2022-09-13T18:56:23.465Z,20.70
2022-09-13T18:58:50.405Z,20.70
2022-09-13T19:01:19.181Z,20.60
2022-09-13T19:03:53.716Z,20.50
2022-09-13T19:06:22.205Z,20.40
2022-09-13T19:08:49.408Z,20.30
2022-09-13T19:11:42.221Z,20.30
2022-09-13T19:14:03.771Z,20.20
2022-09-13T19:16:30.557Z,20.20
2022-09-13T19:18:57.306Z,20.10
2022-09-13T19:21:25.614Z,20.00
2022-09-13T19:23:59.543Z,20.00
2022-09-13T19:26:32.009Z,19.90
2022-09-13T19:29:04.174Z,19.90
2022-09-13T19:31:31.211Z,19.80
2022-09-13T19:33:58.032Z,19.80
2022-09-13T19:36:25.957Z,19.70
2022-09-13T19:38:53.677Z,19.70
2022-09-13T19:41:23.589Z,19.60
2022-09-13T19:43:51.233Z,19.50
2022-09-13T19:46:20.333Z,19.40
2022-09-13T19:48:48.105Z,19.20
2022-09-13T19:51:19.192Z,19.10
2022-09-13T19:53:57.029Z,19.10
2022-09-13T19:56:26.441Z,19.00
2022-09-13T19:58:53.160Z,19.00
2022-09-13T20:01:24.638Z,19.00
2022-09-13T20:03:55.901Z,18.90
2022-09-13T20:06:24.053Z,18.80
2022-09-13T20:08:51.221Z,18.70
2022-09-13T20:11:18.130Z,18.70
2022-09-13T20:13:45.125Z,18.60
2022-09-13T20:16:25.076Z,18.50
2022-09-13T20:18:52.199Z,18.50
2022-09-13T20:21:18.949Z,18.40
2022-09-13T20:23:45.873Z,18.40
2022-09-13T20:26:17.465Z,18.40
2022-09-13T20:28:44.395Z,18.30
2022-09-13T20:31:11.521Z,18.30
2022-09-13T20:33:39.721Z,18.30
2022-09-13T20:36:08.395Z,18.20
2022-09-13T20:38:35.397Z,18.20
2022-09-13T20:41:06.569Z,18.20
2022-09-13T20:43:33.852Z,18.20
2022-09-13T20:46:00.822Z,18.20
2022-09-13T20:48:27.512Z,18.10
2022-09-13T20:51:05.375Z,18.10
2022-09-13T20:53:32.838Z,18.00
2022-09-13T20:56:08.277Z,18.00
2022-09-13T20:58:38.129Z,18.00
2022-09-13T21:01:06.905Z,17.90
2022-09-13T21:03:38.849Z,17.80
2022-09-13T21:06:06.343Z,17.70
2022-09-13T21:08:41.980Z,17.70
2022-09-13T21:11:20.036Z,17.60
2022-09-13T21:13:48.532Z,17.60
2022-09-13T21:16:17.446Z,17.60
2022-09-13T21:18:44.408Z,17.50
2022-09-13T21:21:15.288Z,17.50
2022-09-13T21:23:42.095Z,17.40
2022-09-13T21:26:14.250Z,17.40
2022-09-13T21:28:42.768Z,17.30
2022-09-13T21:31:17.155Z,17.20
2022-09-13T21:33:47.555Z,17.10
2022-09-13T21:36:14.492Z,17.00
2022-09-13T21:38:41.250Z,17.00
2022-09-13T21:41:15.216Z,17.00
2022-09-13T21:43:41.963Z,17.00
2022-09-13T21:46:17.015Z,16.90
2022-09-13T21:48:48.549Z,16.90
2022-09-13T21:51:16.793Z,16.90
2022-09-13T21:53:43.768Z,16.90
2022-09-13T21:56:11.817Z,16.90
2022-09-13T21:58:38.765Z,16.90
2022-09-13T22:01:07.761Z,16.90
2022-09-13T22:03:35.348Z,16.90
2022-09-13T22:06:02.250Z,16.90
2022-09-13T22:08:48.950Z,16.90
2022-09-13T22:11:17.377Z,16.80
2022-09-13T22:13:47.693Z,16.70
2022-09-13T22:16:35.670Z,16.70
2022-09-13T22:19:09.219Z,16.60
2022-09-13T22:21:37.844Z,16.50
2022-09-13T22:24:04.857Z,16.50
2022-09-13T22:26:33.876Z,16.50
2022-09-13T22:29:00.649Z,16.50
2022-09-13T22:31:28.908Z,16.50
2022-09-13T22:33:56.441Z,16.50
2022-09-13T22:36:23.713Z,16.40
2022-09-13T22:38:54.792Z,16.20
2022-09-13T22:41:23.674Z,16.20
2022-09-13T22:43:50.492Z,16.20
2022-09-13T22:46:19.372Z,16.20
2022-09-13T22:48:46.420Z,16.10
2022-09-13T22:51:14.228Z,16.10
2022-09-13T22:53:42.458Z,16.10
2022-09-13T22:56:15.533Z,16.10
2022-09-13T22:58:42.414Z,16.10
2022-09-13T23:01:18.901Z,16.10
2022-09-13T23:03:46.378Z,16.10
2022-09-13T23:06:14.715Z,16.00
2022-09-13T23:08:41.597Z,16.10
2022-09-13T23:11:10.134Z,16.10
2022-09-13T23:13:36.985Z,16.10
2022-09-13T23:16:08.033Z,16.20
2022-09-13T23:18:34.938Z,16.10
2022-09-13T23:21:01.936Z,16.20
2022-09-13T23:23:28.890Z,16.20
2022-09-13T23:25:55.604Z,16.10
2022-09-13T23:28:22.306Z,16.10
2022-09-13T23:30:48.990Z,16.00
2022-09-13T23:33:16.858Z,16.00
2022-09-13T23:35:43.991Z,15.90
2022-09-13T23:38:11.365Z,15.90
2022-09-13T23:40:38.088Z,16.00
2022-09-13T23:43:04.762Z,16.00
2022-09-13T23:45:31.805Z,15.90
2022-09-13T23:47:58.561Z,15.90
2022-09-13T23:50:25.286Z,15.90
2022-09-13T23:52:52.001Z,15.90
2022-09-13T23:55:19.648Z,15.90
2022-09-13T23:57:46.369Z,15.90
